Time;durP1;ratioP1;P1;durP2;ratioP2;P2;SDS_P1;SDS_P2;PMS_P1;PMS_P2;Temp;Humidity;BMP_temperature;BMP_pressure;BME280_temperature;BME280_humidity;BME280_pressure;Samples;Min_cycle;Max_cycle;Signal;HPM_P1;HPM_P2
2023/07/05 00:00:40;;;;;;;11.88;10.05;;;32.80;75.40;;;;;;4920543;29;20207;-93
2023/07/05 00:03:12;;;;;;;13.32;9.50;;;32.90;77.40;;;;;;4915099;29;20219;-94
2023/07/05 00:05:43;;;;;;;10.30;9.30;;;33.00;75.50;;;;;;4924087;29;20213;-94
2023/07/05 00:08:17;;;;;;;10.95;9.85;;;32.90;73.00;;;;;;4919536;29;20209;-93
2023/07/05 00:10:51;;;;;;;10.98;9.57;;;32.70;72.30;;;;;;4913184;29;20224;-93
2023/07/05 00:13:24;;;;;;;11.15;10.15;;;32.60;74.20;;;;;;4916725;29;20301;-95
2023/07/05 00:15:58;;;;;;;11.02;9.88;;;32.60;71.50;;;;;;4920324;29;20212;-94
2023/07/05 00:18:30;;;;;;;11.18;10.10;;;32.50;72.00;;;;;;4922300;29;20216;-94
2023/07/05 00:21:03;;;;;;;11.32;10.27;;;32.40;71.40;;;;;;4903383;29;20237;-94
2023/07/05 00:23:36;;;;;;;11.98;10.77;;;32.40;72.20;;;;;;4915153;29;20304;-94
2023/07/05 00:26:10;;;;;;;10.88;9.77;;;32.50;71.70;;;;;;4920205;29;20209;-94
2023/07/05 00:28:42;;;;;;;11.95;10.75;;;32.50;72.80;;;;;;4910207;29;20299;-93
2023/07/05 00:31:15;;;;;;;12.55;11.35;;;32.60;71.40;;;;;;4919593;29;20211;-93
2023/07/05 00:33:47;;;;;;;13.05;11.82;;;32.40;70.50;;;;;;4920703;29;20213;-93
2023/07/05 00:36:19;;;;;;;12.07;10.98;;;32.30;70.50;;;;;;4920212;29;20398;-92
2023/07/05 00:38:50;;;;;;;12.90;11.80;;;32.20;72.80;;;;;;4906254;29;20236;-91
2023/07/05 00:41:24;;;;;;;13.80;12.50;;;32.00;69.40;;;;;;4928842;29;20272;-91
2023/07/05 00:43:57;;;;;;;13.55;12.25;;;31.80;68.50;;;;;;4925646;29;20236;-92
2023/07/05 00:46:32;;;;;;;13.27;11.98;;;31.70;69.20;;;;;;4920497;29;20217;-92
2023/07/05 00:49:07;;;;;;;13.13;11.73;;;31.70;70.70;;;;;;4911877;29;20205;-92
2023/07/05 00:51:45;;;;;;;13.52;12.20;;;31.80;68.70;;;;;;4916994;29;20219;-91
2023/07/05 00:54:20;;;;;;;13.98;12.68;;;31.90;71.60;;;;;;4922213;29;20227;-89
2023/07/05 00:57:01;;;;;;;12.98;11.77;;;32.20;69.90;;;;;;4913799;29;20279;-91
2023/07/05 00:59:37;;;;;;;13.52;12.13;;;32.60;69.70;;;;;;4910960;29;20209;-91
2023/07/05 01:02:09;;;;;;;14.02;12.52;;;32.80;68.70;;;;;;4909314;29;20212;-90
2023/07/05 01:04:41;;;;;;;13.90;12.50;;;33.20;70.10;;;;;;4916842;29;20197;-91
2023/07/05 01:07:14;;;;;;;14.85;13.20;;;33.40;71.10;;;;;;4912345;29;20213;-90
2023/07/05 01:09:48;;;;;;;13.05;11.85;;;33.70;70.20;;;;;;4912748;29;20205;-90
2023/07/05 01:12:28;;;;;;;12.63;11.43;;;33.80;68.00;;;;;;4915741;29;20299;-92
2023/07/05 01:15:06;;;;;;;12.52;11.32;;;33.90;67.30;;;;;;4914203;29;20276;-90
2023/07/05 01:17:43;;;;;;;12.93;11.63;;;33.90;68.80;;;;;;4915418;29;20237;-91
2023/07/05 01:20:26;;;;;;;12.88;11.77;;;33.60;66.70;;;;;;4917398;29;20599;-91
2023/07/05 01:23:33;;;;;;;13.18;11.68;;;33.50;68.60;;;;;;4916115;29;20725;-90
2023/07/05 01:26:41;;;;;;;13.88;12.52;;;33.50;69.10;;;;;;4913213;29;20645;-92
2023/07/05 01:30:05;;;;;;;13.05;11.75;;;33.30;68.20;;;;;;4911163;29;20621;-92
2023/07/05 01:32:44;;;;;;;13.60;12.20;;;32.90;69.10;;;;;;4874628;29;20296;-90
2023/07/05 01:35:21;;;;;;;12.30;11.18;;;32.70;69.20;;;;;;4915414;29;20681;-91
2023/07/05 01:37:52;;;;;;;14.20;12.73;;;32.70;69.20;;;;;;4905028;29;20251;-91
2023/07/05 01:40:53;;;;;;;14.48;12.98;;;32.60;70.60;;;;;;4906462;29;20283;-90
2023/07/05 01:43:28;;;;;;;14.13;12.80;;;32.40;71.40;;;;;;4907318;29;20216;-91
2023/07/05 01:46:16;;;;;;;15.02;13.45;;;31.90;71.80;;;;;;4908659;29;20212;-91
2023/07/05 01:49:02;;;;;;;13.27;11.98;;;31.70;71.00;;;;;;4914462;29;20217;-91
2023/07/05 01:51:38;;;;;;;14.40;12.55;;;31.50;74.30;;;;;;4923496;29;20217;-89
2023/07/05 01:54:15;;;;;;;13.90;12.60;;;31.40;73.70;;;;;;4918045;29;20260;-91
2023/07/05 01:56:54;;;;;;;14.35;13.05;;;31.50;73.80;;;;;;4915615;29;20211;-91
2023/07/05 01:59:28;;;;;;;14.02;12.68;;;32.00;73.60;;;;;;4914637;29;20268;-91
2023/07/05 02:02:01;;;;;;;13.85;12.55;;;32.40;74.50;;;;;;4913046;29;20216;-91
2023/07/05 02:04:36;;;;;;;14.10;11.38;;;32.30;74.10;;;;;;4913432;29;20216;-90
2023/07/05 02:07:09;;;;;;;11.75;10.70;;;31.90;73.10;;;;;;4916371;29;20733;-94
2023/07/05 02:09:42;;;;;;;11.13;10.13;;;31.70;75.10;;;;;;4910958;29;20217;-92
2023/07/05 02:12:14;;;;;;;12.35;11.05;;;31.50;75.00;;;;;;4910206;29;20260;-92
2023/07/05 02:14:46;;;;;;;13.10;11.85;;;31.10;76.70;;;;;;4911427;29;20216;-92
2023/07/05 02:17:18;;;;;;;11.32;10.26;;;30.60;77.00;;;;;;4575461;28;10000989;-91
2023/07/05 02:19:53;;;;;;;11.57;10.38;;;30.20;77.40;;;;;;4919046;29;20307;-91
2023/07/05 02:22:26;;;;;;;11.30;10.20;;;30.00;78.10;;;;;;4920824;29;20217;-89
2023/07/05 02:24:58;;;;;;;11.55;10.43;;;29.70;79.50;;;;;;4906803;29;20209;-91
2023/07/05 02:27:30;;;;;;;11.57;10.48;;;29.50;80.30;;;;;;4914593;29;20205;-88
2023/07/05 02:32:37;;;;;;;14.95;9.68;;;29.10;82.30;;;;;;4361721;23;10000898;-90
2023/07/05 02:35:10;;;;;;;10.55;9.55;;;28.80;84.00;;;;;;4868700;29;20724;-88
2023/07/05 02:37:42;;;;;;;11.57;10.38;;;28.80;86.30;;;;;;4894735;29;20233;-91
2023/07/05 02:40:15;;;;;;;10.15;9.18;;;28.60;85.30;;;;;;4896014;29;20217;-90
2023/07/05 02:42:47;;;;;;;11.45;9.75;;;28.50;84.70;;;;;;4901264;29;20217;-92
2023/07/05 02:45:18;;;;;;;10.67;9.57;;;28.40;85.60;;;;;;4897036;29;20205;-89
2023/07/05 02:47:50;;;;;;;11.35;9.13;;;28.20;87.10;;;;;;4897767;29;20300;-92
2023/07/05 02:50:24;;;;;;;11.88;9.38;;;28.00;88.60;;;;;;4898972;29;20220;-91
2023/07/05 02:52:56;;;;;;;10.07;9.07;;;27.80;89.80;;;;;;4888304;29;20632;-88
2023/07/05 02:55:28;;;;;;;10.93;9.13;;;27.70;88.40;;;;;;4897749;29;20965;-90
2023/07/05 02:57:59;;;;;;;10.20;9.13;;;27.60;89.50;;;;;;4898338;29;20229;-88
2023/07/05 03:00:30;;;;;;;13.17;9.20;;;27.40;90.80;;;;;;4892366;29;20261;-88
2023/07/05 03:03:02;;;;;;;10.73;9.00;;;27.30;91.30;;;;;;4893287;29;20210;-88
2023/07/05 03:05:36;;;;;;;12.13;9.43;;;27.10;91.50;;;;;;4896832;29;20682;-86
2023/07/05 03:08:07;;;;;;;11.17;9.37;;;27.00;92.40;;;;;;4893470;29;20219;-89
2023/07/05 03:10:42;;;;;;;9.30;8.40;;;26.80;91.60;;;;;;4888977;29;20317;-87
2023/07/05 03:13:14;;;;;;;11.07;9.20;;;26.70;92.20;;;;;;4897634;29;20682;-87
2023/07/05 03:15:45;;;;;;;10.67;8.77;;;26.60;91.40;;;;;;4911485;29;20210;-87
2023/07/05 03:18:17;;;;;;;11.10;9.07;;;26.50;91.40;;;;;;4888231;29;20234;-84
2023/07/05 03:20:51;;;;;;;12.83;8.73;;;26.50;91.60;;;;;;4891618;29;20217;-85
2023/07/05 03:23:23;;;;;;;11.80;9.00;;;26.40;91.70;;;;;;4893500;29;20209;-85
2023/07/05 03:26:00;;;;;;;13.37;9.27;;;26.30;91.90;;;;;;4902539;29;20376;-88
2023/07/05 03:28:33;;;;;;;12.17;9.20;;;26.20;90.90;;;;;;4899334;29;20220;-89
2023/07/05 03:31:08;;;;;;;9.77;8.77;;;26.10;91.80;;;;;;4876332;29;20907;-87
2023/07/05 03:33:41;;;;;;;9.93;8.97;;;26.00;90.60;;;;;;4872590;29;20275;-91
2023/07/05 03:36:18;;;;;;;12.40;9.73;;;25.90;91.90;;;;;;4871793;29;20213;-86
2023/07/05 03:38:51;;;;;;;12.43;9.73;;;25.80;94.30;;;;;;4877542;29;20305;-87
2023/07/05 03:41:24;;;;;;;18.87;12.73;;;25.60;95.50;;;;;;4869183;29;20211;-86
2023/07/05 03:43:58;;;;;;;14.60;10.67;;;25.40;99.90;;;;;;4875757;29;20222;-86
2023/07/05 03:46:30;;;;;;;14.70;10.53;;;25.20;99.90;;;;;;4874191;29;20792;-86
2023/07/05 03:49:01;;;;;;;14.93;9.57;;;24.90;99.70;;;;;;4876920;29;20286;-86
2023/07/05 03:51:33;;;;;;;10.47;9.20;;;24.80;97.50;;;;;;4867888;29;20222;-88
2023/07/05 03:54:05;;;;;;;12.10;9.87;;;24.70;97.90;;;;;;4867993;29;20214;-87
2023/07/05 03:56:37;;;;;;;13.47;9.30;;;24.60;98.20;;;;;;4877926;29;20239;-86
2023/07/05 03:59:09;;;;;;;15.97;9.50;;;24.50;98.30;;;;;;4876949;29;20253;-91
2023/07/05 04:01:41;;;;;;;10.57;9.47;;;24.30;98.40;;;;;;4882158;29;20211;-96
2023/07/05 04:04:12;;;;;;;10.27;9.27;;;24.20;98.70;;;;;;4886106;29;20559;-92
2023/07/05 04:06:46;;;;;;;11.43;9.70;;;24.10;98.80;;;;;;4877226;29;20215;-92
2023/07/05 04:09:18;;;;;;;9.93;8.80;;;24.00;98.40;;;;;;4876717;29;20238;-92
2023/07/05 04:11:50;;;;;;;11.37;9.17;;;23.90;99.40;;;;;;4876289;29;20218;-91
2023/07/05 04:14:21;;;;;;;13.37;9.57;;;23.70;99.30;;;;;;4875745;29;20218;-86
2023/07/05 04:16:53;;;;;;;11.77;9.57;;;23.60;99.90;;;;;;4875145;29;20585;-85
2023/07/05 04:19:24;;;;;;;11.13;9.93;;;23.50;99.90;;;;;;4881143;29;20238;-90
2023/07/05 04:21:58;;;;;;;12.53;9.93;;;23.40;99.90;;;;;;4868873;29;20302;-86
2023/07/05 04:24:30;;;;;;;13.07;10.20;;;23.30;99.90;;;;;;4879276;29;20214;-87
2023/07/05 04:27:02;;;;;;;25.00;9.50;;;23.20;99.90;;;;;;4880133;29;20217;-90
2023/07/05 04:29:35;;;;;;;14.27;10.53;;;23.10;99.90;;;;;;4885714;29;20234;-88
2023/07/05 04:32:07;;;;;;;16.47;10.20;;;23.00;99.90;;;;;;4868167;29;20218;-88
2023/07/05 04:34:40;;;;;;;48.50;10.70;;;23.00;99.90;;;;;;4871733;29;20222;-88
2023/07/05 04:37:16;;;;;;;21.53;10.40;;;22.90;99.90;;;;;;4876423;29;20265;-92
2023/07/05 04:39:59;;;;;;;10.97;9.77;;;22.70;99.90;;;;;;4878887;29;20233;-93
2023/07/05 04:42:32;;;;;;;12.37;10.33;;;22.70;99.90;;;;;;4883059;29;20206;-92
2023/07/05 04:45:05;;;;;;;12.20;10.63;;;22.60;99.90;;;;;;4882816;29;20237;-94
2023/07/05 04:47:36;;;;;;;11.13;10.03;;;22.40;99.90;;;;;;4890716;29;20245;-86
2023/07/05 04:50:08;;;;;;;12.57;10.47;;;22.40;99.90;;;;;;4857682;29;20278;-85
2023/07/05 04:52:42;;;;;;;11.07;9.97;;;22.30;99.90;;;;;;4856533;29;20215;-86
2023/07/05 04:55:13;;;;;;;12.13;10.93;;;22.20;99.90;;;;;;4864074;29;20829;-85
2023/07/05 04:57:45;;;;;;;12.23;10.57;;;22.10;99.90;;;;;;4896327;29;20614;-86
2023/07/05 05:00:17;;;;;;;12.03;10.70;;;22.00;99.90;;;;;;4860505;29;20265;-87
2023/07/05 05:02:48;;;;;;;14.37;10.43;;;22.00;99.90;;;;;;4858986;29;20306;-85
2023/07/05 05:05:20;;;;;;;11.97;10.60;;;21.90;99.90;;;;;;4869601;29;20682;-86
2023/07/05 05:07:53;;;;;;;11.83;10.53;;;21.80;99.90;;;;;;4878023;29;20222;-86
2023/07/05 05:10:24;;;;;;;12.53;10.67;;;21.70;99.90;;;;;;4860536;29;20210;-87
2023/07/05 05:12:55;;;;;;;14.47;10.83;;;21.70;99.90;;;;;;4864284;29;20301;-86
2023/07/05 05:15:26;;;;;;;12.77;11.37;;;21.60;99.90;;;;;;4862851;29;20215;-86
2023/07/05 05:17:57;;;;;;;12.90;11.60;;;21.50;99.90;;;;;;4860216;29;20211;-86
2023/07/05 05:20:31;;;;;;;12.50;10.70;;;21.50;99.90;;;;;;4878339;29;20241;-86
2023/07/05 05:23:04;;;;;;;14.23;11.10;;;21.40;99.90;;;;;;4877258;29;20233;-88
2023/07/05 05:25:36;;;;;;;14.13;11.07;;;21.40;99.90;;;;;;4879127;29;20723;-87
2023/07/05 05:28:08;;;;;;;12.40;11.10;;;21.40;99.90;;;;;;4885638;29;20316;-87
2023/07/05 05:30:40;;;;;;;12.83;11.07;;;21.30;99.90;;;;;;4863851;29;20216;-87
2023/07/05 05:33:20;;;;;;;12.37;11.17;;;21.30;99.90;;;;;;4878538;29;20289;-86
2023/07/05 05:35:52;;;;;;;11.93;10.73;;;21.20;99.90;;;;;;4879446;29;20210;-86
2023/07/05 05:38:25;;;;;;;13.07;11.77;;;21.20;99.90;;;;;;4882335;29;20228;-87
2023/07/05 05:41:03;;;;;;;14.33;10.90;;;21.10;99.90;;;;;;4913078;29;20237;-87
2023/07/05 05:43:34;;;;;;;13.17;10.97;;;21.10;99.90;;;;;;4904198;29;20270;-86
2023/07/05 05:46:09;;;;;;;13.17;10.30;;;21.00;99.90;;;;;;4888583;29;20219;-87
2023/07/05 05:48:44;;;;;;;13.40;10.33;;;21.00;99.90;;;;;;4876951;29;20215;-87
2023/07/05 05:51:16;;;;;;;14.63;10.70;;;20.90;99.90;;;;;;4881870;29;20218;-86
2023/07/05 05:53:50;;;;;;;11.73;10.30;;;20.80;99.90;;;;;;4881555;29;20302;-87
2023/07/05 05:56:21;;;;;;;12.40;10.43;;;20.80;99.90;;;;;;4886483;29;20207;-86
2023/07/05 05:58:53;;;;;;;13.47;11.03;;;20.80;99.90;;;;;;4891182;29;20686;-85
2023/07/05 06:01:24;;;;;;;14.90;11.93;;;20.70;99.90;;;;;;4883583;29;20301;-85
2023/07/05 06:03:56;;;;;;;13.17;11.40;;;20.70;99.90;;;;;;4877419;29;20215;-86
2023/07/05 06:06:28;;;;;;;12.63;11.17;;;20.70;99.90;;;;;;4893308;29;20221;-85
2023/07/05 06:09:02;;;;;;;12.90;10.37;;;20.70;99.90;;;;;;4889067;29;20571;-89
2023/07/05 06:11:35;;;;;;;12.43;11.00;;;20.60;99.90;;;;;;4872443;29;20218;-88
2023/07/05 06:14:07;;;;;;;12.93;10.70;;;20.60;99.90;;;;;;4879843;29;20293;-88
2023/07/05 06:16:39;;;;;;;13.10;11.00;;;20.50;99.90;;;;;;4870740;29;20320;-87
2023/07/05 06:19:10;;;;;;;11.97;10.63;;;20.50;99.90;;;;;;4880725;29;20211;-88
2023/07/05 06:21:41;;;;;;;13.70;10.70;;;20.40;99.90;;;;;;4877299;29;20596;-87
2023/07/05 06:24:15;;;;;;;11.83;10.60;;;20.40;99.90;;;;;;4877221;29;20593;-87
2023/07/05 06:26:46;;;;;;;12.90;10.53;;;20.40;99.90;;;;;;4877522;29;20218;-88
2023/07/05 06:29:18;;;;;;;12.73;11.00;;;20.30;99.90;;;;;;4888050;29;20210;-88
2023/07/05 06:31:49;;;;;;;14.03;11.07;;;20.30;99.90;;;;;;4879603;29;20743;-88
2023/07/05 06:34:24;;;;;;;12.13;10.83;;;20.30;99.90;;;;;;4873492;29;20225;-89
2023/07/05 06:36:57;;;;;;;12.23;10.77;;;20.20;99.90;;;;;;4881746;29;20222;-87
2023/07/05 06:39:31;;;;;;;13.67;11.10;;;20.10;99.90;;;;;;4873826;29;20209;-87
2023/07/05 06:42:03;;;;;;;13.87;11.43;;;20.10;99.90;;;;;;4881869;29;20244;-89
2023/07/05 06:44:34;;;;;;;13.37;11.23;;;20.10;99.90;;;;;;4882550;29;20581;-88
2023/07/05 06:47:06;;;;;;;15.97;11.73;;;20.10;99.90;;;;;;4883013;29;20277;-89
2023/07/05 06:49:38;;;;;;;13.27;11.87;;;20.00;99.90;;;;;;4882720;29;20214;-89
2023/07/05 06:52:13;;;;;;;15.33;12.47;;;20.00;99.90;;;;;;4871482;29;20210;-88
2023/07/05 06:54:47;;;;;;;15.07;12.83;;;19.90;99.90;;;;;;4882091;29;20272;-89
2023/07/05 06:57:19;;;;;;;17.53;13.77;;;19.90;99.90;;;;;;4866951;29;20211;-87
2023/07/05 06:59:50;;;;;;;16.30;14.53;;;19.90;99.90;;;;;;4865735;29;20242;-88
2023/07/05 07:02:22;;;;;;;17.90;16.00;;;19.90;99.90;;;;;;4882427;29;20256;-89
2023/07/05 07:04:55;;;;;;;21.47;15.93;;;19.90;99.90;;;;;;4882416;29;20218;-88
2023/07/05 07:07:27;;;;;;;18.40;16.13;;;19.80;99.90;;;;;;4883088;29;20293;-89
2023/07/05 07:10:03;;;;;;;19.23;15.90;;;19.80;99.90;;;;;;4898011;29;20217;-89
2023/07/05 07:12:34;;;;;;;17.57;15.30;;;19.70;99.90;;;;;;4884804;29;20217;-89
2023/07/05 07:15:06;;;;;;;18.10;15.87;;;19.60;99.90;;;;;;4887317;29;20698;-88
2023/07/05 07:17:37;;;;;;;17.83;15.97;;;19.60;99.90;;;;;;4895768;29;20729;-89
2023/07/05 07:20:11;;;;;;;17.57;15.50;;;19.60;99.90;;;;;;4894433;29;20575;-91
2023/07/05 07:22:43;;;;;;;21.43;16.13;;;19.60;99.90;;;;;;4898227;29;20597;-89
2023/07/05 07:25:18;;;;;;;18.17;15.83;;;19.50;99.90;;;;;;4893305;29;20218;-89
2023/07/05 07:27:49;;;;;;;20.63;16.20;;;19.40;99.90;;;;;;4877447;29;20214;-88
2023/07/05 07:30:22;;;;;;;24.23;15.77;;;19.40;99.90;;;;;;4872300;29;20206;-89
2023/07/05 07:32:54;;;;;;;18.17;15.13;;;19.40;99.90;;;;;;4874051;29;20214;-89
2023/07/05 07:35:27;;;;;;;17.30;15.47;;;19.30;99.90;;;;;;4879349;29;20860;-91
2023/07/05 07:37:59;;;;;;;16.87;14.73;;;19.30;99.90;;;;;;4853089;29;20222;-88
2023/07/05 07:40:38;;;;;;;18.50;15.23;;;19.20;99.90;;;;;;4875419;29;20234;-88
2023/07/05 07:43:10;;;;;;;18.07;15.50;;;19.20;99.90;;;;;;4867403;29;20240;-89
2023/07/05 07:45:42;;;;;;;21.53;16.93;;;19.10;99.90;;;;;;4872232;29;20203;-87
2023/07/05 07:48:13;;;;;;;19.73;16.27;;;19.10;99.90;;;;;;4879064;29;20203;-89
2023/07/05 07:50:51;;;;;;;20.50;16.80;;;19.00;99.90;;;;;;4866274;29;20210;-89
2023/07/05 07:53:24;;;;;;;18.33;16.27;;;19.10;99.90;;;;;;4875657;29;20215;-88
2023/07/05 07:55:59;;;;;;;20.57;17.23;;;19.10;99.90;;;;;;4890104;29;20202;-88
2023/07/05 07:58:31;;;;;;;20.77;17.70;;;19.10;99.90;;;;;;4876923;29;20289;-89
2023/07/05 08:01:12;;;;;;;20.70;17.30;;;19.10;99.90;;;;;;4878829;29;20241;-89
2023/07/05 08:03:44;;;;;;;24.33;18.40;;;19.00;99.90;;;;;;4872733;29;20329;-89
2023/07/05 08:06:15;;;;;;;20.30;18.10;;;19.00;99.90;;;;;;4878133;29;20203;-87
2023/07/05 08:08:46;;;;;;;21.60;17.87;;;18.90;99.90;;;;;;4874606;29;20758;-88
2023/07/05 08:11:23;;;;;;;20.90;17.77;;;18.90;99.90;;;;;;4873708;29;20222;-88
2023/07/05 08:13:54;;;;;;;20.77;17.80;;;18.80;99.90;;;;;;4874335;29;20715;-90
2023/07/05 08:16:26;;;;;;;22.67;17.97;;;18.80;99.90;;;;;;4864305;29;20234;-88
2023/07/05 08:18:58;;;;;;;21.70;18.53;;;18.70;99.90;;;;;;4867942;29;20214;-88
2023/07/05 08:21:29;;;;;;;21.43;17.57;;;18.70;99.90;;;;;;4874770;29;20231;-89
2023/07/05 08:24:01;;;;;;;20.50;17.77;;;18.70;99.90;;;;;;4872688;29;20221;-89
2023/07/05 08:26:54;;;;;;;19.63;16.27;;;18.60;99.90;;;;;;4869752;29;20207;-91
2023/07/05 08:29:26;;;;;;;21.30;17.13;;;18.60;99.90;;;;;;4892624;29;20266;-89
2023/07/05 08:31:57;;;;;;;20.30;17.33;;;18.60;99.90;;;;;;4861743;29;20218;-90
2023/07/05 08:34:30;;;;;;;21.63;17.70;;;18.60;99.90;;;;;;4875100;29;20219;-89
2023/07/05 08:37:01;;;;;;;20.77;16.37;;;18.50;99.90;;;;;;4883936;29;20594;-89
2023/07/05 08:39:33;;;;;;;20.23;16.30;;;18.50;99.90;;;;;;4880744;29;20214;-89
2023/07/05 08:42:33;;;;;;;18.23;15.43;;;18.50;99.90;;;;;;4873697;29;20269;-88
2023/07/05 08:45:16;;;;;;;18.20;15.20;;;18.50;99.90;;;;;;4878060;29;20222;-88
2023/07/05 08:47:51;;;;;;;18.93;15.70;;;18.40;99.90;;;;;;4879849;29;20281;-88
2023/07/05 08:50:29;;;;;;;19.80;16.57;;;18.40;99.90;;;;;;4868909;29;20207;-88
2023/07/05 08:53:11;;;;;;;17.53;15.67;;;18.40;99.90;;;;;;4874746;29;20286;-87
2023/07/05 08:55:53;;;;;;;19.30;15.27;;;18.40;99.90;;;;;;4868504;29;20686;-88
2023/07/05 08:58:28;;;;;;;22.07;14.90;;;18.40;99.90;;;;;;4876646;29;20221;-87
2023/07/05 09:01:05;;;;;;;16.77;14.97;;;18.30;99.90;;;;;;4877744;29;20229;-87
2023/07/05 09:03:37;;;;;;;19.57;15.47;;;18.30;99.90;;;;;;4878067;29;20223;-87
2023/07/05 09:06:23;;;;;;;18.50;15.63;;;18.30;99.90;;;;;;4535834;29;10000158;-87
2023/07/05 09:09:15;;;;;;;19.30;14.70;;;18.30;99.90;;;;;;4861579;29;20218;-89
2023/07/05 09:11:56;;;;;;;16.33;14.60;;;18.30;99.90;;;;;;4865365;29;20325;-89
2023/07/05 09:14:41;;;;;;;18.73;15.67;;;18.20;99.90;;;;;;4880890;29;20237;-87
2023/07/05 09:17:22;;;;;;;19.13;15.13;;;18.20;99.90;;;;;;4880266;29;20682;-88
2023/07/05 09:20:05;;;;;;;18.17;14.83;;;18.20;99.90;;;;;;4879552;29;20674;-89
2023/07/05 09:22:39;;;;;;;18.60;15.30;;;18.10;99.90;;;;;;4877806;29;20265;-89
2023/07/05 09:25:16;;;;;;;19.27;15.67;;;18.10;99.90;;;;;;4877092;29;20218;-89
2023/07/05 09:27:53;;;;;;;19.87;16.27;;;18.00;99.90;;;;;;4861764;29;20274;-89
2023/07/05 09:30:27;;;;;;;19.70;17.07;;;18.00;99.90;;;;;;4875712;29;20203;-89
2023/07/05 09:33:07;;;;;;;22.70;16.83;;;17.90;99.90;;;;;;4861696;29;20306;-88
2023/07/05 09:35:40;;;;;;;21.50;17.60;;;17.90;99.90;;;;;;4876363;29;20199;-88
2023/07/05 09:38:17;;;;;;;20.50;17.63;;;17.80;99.90;;;;;;4863249;29;20214;-88
2023/07/05 09:40:56;;;;;;;19.27;16.30;;;17.80;99.90;;;;;;4886026;29;20269;-89
2023/07/05 09:43:31;;;;;;;19.97;17.33;;;17.80;99.90;;;;;;4883395;29;20701;-88
2023/07/05 09:46:05;;;;;;;21.00;16.93;;;17.80;99.90;;;;;;4883708;29;20646;-89
2023/07/05 09:48:44;;;;;;;18.93;16.93;;;17.70;99.90;;;;;;4882638;29;20214;-89
2023/07/05 09:51:16;;;;;;;21.53;17.97;;;17.70;99.90;;;;;;4882481;29;20218;-89
2023/07/05 09:53:52;;;;;;;21.20;17.90;;;17.50;99.90;;;;;;4886569;29;20206;-88
2023/07/05 09:56:28;;;;;;;21.77;18.53;;;17.50;99.90;;;;;;4871328;29;21033;-88
2023/07/05 09:59:21;;;;;;;22.50;19.17;;;17.50;99.90;;;;;;4883005;29;20221;-88
2023/07/05 10:01:57;;;;;;;22.10;17.53;;;17.40;99.90;;;;;;4869266;29;20353;-88
2023/07/05 10:04:31;;;;;;;21.33;18.23;;;17.40;99.90;;;;;;4865043;29;20599;-88
2023/07/05 10:07:04;;;;;;;22.53;18.30;;;17.40;99.90;;;;;;4865456;29;20205;-87
2023/07/05 10:09:35;;;;;;;22.17;18.57;;;17.40;99.90;;;;;;4898179;29;20215;-89
2023/07/05 10:12:11;;;;;;;22.20;17.63;;;17.30;99.90;;;;;;4904733;29;20258;-87
2023/07/05 10:14:46;;;;;;;23.63;18.53;;;17.30;99.90;;;;;;4910667;29;20259;-88
2023/07/05 10:17:18;;;;;;;22.20;17.70;;;17.20;99.90;;;;;;4867158;29;20252;-88
2023/07/05 10:19:56;;;;;;;21.40;17.43;;;17.20;99.90;;;;;;4881802;29;20210;-88
2023/07/05 10:22:33;;;;;;;20.20;17.70;;;17.20;99.90;;;;;;4868507;29;20244;-89
2023/07/05 10:25:08;;;;;;;24.70;18.57;;;17.20;99.90;;;;;;4884205;29;20686;-88
2023/07/05 10:27:43;;;;;;;20.30;18.03;;;17.20;99.90;;;;;;4882252;29;20198;-88
2023/07/05 10:30:17;;;;;;;23.33;17.37;;;17.10;99.90;;;;;;4889837;29;20292;-89
2023/07/05 10:32:51;;;;;;;20.23;17.60;;;17.10;99.90;;;;;;4874139;29;20274;-88
2023/07/05 10:35:27;;;;;;;20.93;17.13;;;17.00;99.90;;;;;;4882411;29;20217;-88
2023/07/05 10:38:00;;;;;;;21.10;15.47;;;17.00;99.90;;;;;;4881304;29;20581;-89
2023/07/05 10:40:33;;;;;;;19.67;15.97;;;16.90;99.90;;;;;;4874518;29;20218;-88
2023/07/05 10:43:05;;;;;;;17.63;15.63;;;16.90;99.90;;;;;;4870026;29;20238;-89
2023/07/05 10:45:37;;;;;;;15.77;14.10;;;16.90;99.90;;;;;;4864267;29;20226;-89
2023/07/05 10:48:20;;;;;;;14.80;12.73;;;16.90;99.90;;;;;;4866801;29;20288;-88
2023/07/05 10:50:54;;;;;;;14.87;11.80;;;16.90;99.90;;;;;;4892040;29;20202;-89
2023/07/05 10:53:27;;;;;;;16.40;11.57;;;16.90;99.90;;;;;;4864253;29;20889;-88
2023/07/05 10:56:06;;;;;;;15.87;12.13;;;16.90;99.90;;;;;;4864745;29;20218;-89
2023/07/05 10:58:42;;;;;;;13.73;12.23;;;16.90;99.90;;;;;;4871277;29;20221;-90
2023/07/05 11:01:19;;;;;;;15.20;11.90;;;16.90;99.90;;;;;;4881059;29;20297;-87
2023/07/05 11:03:55;;;;;;;13.13;11.60;;;16.90;99.90;;;;;;4881484;29;20273;-88
2023/07/05 11:06:30;;;;;;;15.83;11.90;;;16.90;99.90;;;;;;4874070;29;20290;-88
2023/07/05 11:09:04;;;;;;;16.93;11.57;;;16.90;99.90;;;;;;4890203;29;20256;-88
2023/07/05 11:11:45;;;;;;;13.43;11.33;;;16.80;99.90;;;;;;4873292;29;20206;-88
2023/07/05 11:14:18;;;;;;;17.00;11.57;;;16.80;99.90;;;;;;4878674;29;20260;-88
2023/07/05 11:16:50;;;;;;;14.70;12.30;;;16.80;99.90;;;;;;4892606;29;20304;-88
2023/07/05 11:19:25;;;;;;;12.90;11.50;;;16.70;99.90;;;;;;4881942;29;20218;-88
2023/07/05 11:22:00;;;;;;;13.47;11.30;;;16.70;99.90;;;;;;4880078;29;20770;-88
2023/07/05 11:24:47;;;;;;;13.33;11.53;;;16.60;99.90;;;;;;4883498;29;20903;-89
2023/07/05 11:27:52;;;;;;;14.20;11.57;;;16.50;99.90;;;;;;4867000;29;20658;-89
2023/07/05 11:30:46;;;;;;;13.63;11.67;;;16.40;99.90;;;;;;4876551;29;20203;-89
2023/07/05 11:33:22;;;;;;;12.50;10.63;;;16.40;99.90;;;;;;4880406;29;20226;-88
2023/07/05 11:35:56;;;;;;;15.00;11.73;;;16.30;99.90;;;;;;4876706;29;20207;-88
2023/07/05 11:39:04;;;;;;;13.70;12.13;;;16.30;99.90;;;;;;4868305;29;20209;-89
2023/07/05 11:41:40;;;;;;;12.43;11.10;;;16.20;99.90;;;;;;4881073;29;20639;-88
2023/07/05 11:44:30;;;;;;;14.53;11.43;;;16.20;99.90;;;;;;4879966;29;20222;-88
2023/07/05 11:47:03;;;;;;;12.07;10.77;;;16.10;99.90;;;;;;4862418;29;20219;-87
2023/07/05 11:49:37;;;;;;;13.40;10.73;;;16.00;99.90;;;;;;4863657;29;20226;-89
2023/07/05 11:52:24;;;;;;;12.73;11.00;;;16.00;99.90;;;;;;4886910;29;20209;-87
2023/07/05 11:55:04;;;;;;;13.00;10.77;;;16.00;99.90;;;;;;4881033;29;20692;-89
2023/07/05 11:57:42;;;;;;;12.90;10.77;;;16.00;99.90;;;;;;4869320;29;20230;-88
2023/07/05 12:00:17;;;;;;;13.77;10.63;;;15.90;99.90;;;;;;4877245;29;20242;-88
2023/07/05 12:02:56;;;;;;;14.50;10.57;;;15.80;99.90;;;;;;4879574;29;20305;-88
2023/07/05 12:05:32;;;;;;;14.77;11.67;;;15.80;99.90;;;;;;4880973;29;20697;-87
2023/07/05 12:08:15;;;;;;;14.70;10.50;;;15.80;99.90;;;;;;4881137;29;20214;-89
2023/07/05 12:10:54;;;;;;;12.67;10.53;;;15.80;99.90;;;;;;4888647;29;20301;-90
2023/07/05 12:13:32;;;;;;;12.93;10.60;;;15.70;99.90;;;;;;4871459;29;20587;-88
2023/07/05 12:16:06;;;;;;;13.47;10.17;;;15.70;99.90;;;;;;4875523;29;20217;-88
2023/07/05 12:18:38;;;;;;;13.57;10.43;;;15.70;99.90;;;;;;4880328;29;20222;-88
2023/07/05 12:21:09;;;;;;;12.27;10.03;;;15.60;99.90;;;;;;4877777;29;20287;-88
2023/07/05 12:23:41;;;;;;;12.63;10.70;;;15.70;99.90;;;;;;4878851;29;20246;-88
2023/07/05 12:26:29;;;;;;;12.67;10.73;;;15.70;99.90;;;;;;4887629;29;20217;-88
2023/07/05 12:29:15;;;;;;;12.47;10.73;;;15.60;99.90;;;;;;4901026;29;20218;-89
2023/07/05 12:31:46;;;;;;;14.23;10.67;;;15.50;99.90;;;;;;4877730;29;20750;-89
2023/07/05 12:34:21;;;;;;;13.97;11.23;;;15.50;99.90;;;;;;4879625;29;20572;-88
2023/07/05 12:36:53;;;;;;;14.60;11.60;;;15.50;99.90;;;;;;4880989;29;20214;-89
2023/07/05 12:39:25;;;;;;;13.80;10.77;;;15.40;99.90;;;;;;4873099;29;20221;-88
2023/07/05 12:42:02;;;;;;;14.27;11.77;;;15.40;99.90;;;;;;4884175;29;20194;-89
2023/07/05 12:44:38;;;;;;;12.07;10.33;;;15.40;99.90;;;;;;4887108;29;20233;-89
2023/07/05 12:47:15;;;;;;;12.70;10.43;;;15.40;99.90;;;;;;4891318;29;20502;-89
2023/07/05 12:49:48;;;;;;;13.23;10.60;;;15.50;99.90;;;;;;4892471;29;20204;-89
2023/07/05 12:52:21;;;;;;;12.33;10.23;;;15.50;99.90;;;;;;4876274;29;20207;-89
2023/07/05 12:54:53;;;;;;;13.37;10.10;;;15.50;99.90;;;;;;4899563;29;20225;-88
2023/07/05 12:57:28;;;;;;;12.77;10.67;;;15.50;99.90;;;;;;4899435;29;20242;-89
2023/07/05 13:00:04;;;;;;;14.17;10.87;;;15.50;99.90;;;;;;4900292;29;20229;-89
2023/07/05 13:02:37;;;;;;;12.20;10.60;;;15.50;99.90;;;;;;4879209;29;20261;-89
2023/07/05 13:05:09;;;;;;;10.97;9.60;;;15.40;99.90;;;;;;4882991;29;20217;-88
2023/07/05 13:07:42;;;;;;;11.80;10.60;;;15.40;99.90;;;;;;4873172;29;20206;-88
2023/07/05 13:10:13;;;;;;;11.10;9.70;;;15.50;99.90;;;;;;4901897;29;20248;-88